sensor_id;sensor_type;location;lat;lon;timestamp;P1;durP1;ratioP1;P2;durP2;ratioP2
39822;SDS011;25499;53.958;10.970;2023-04-26T06:13:11;8.55;;;1.58;;
39822;SDS011;25499;53.958;10.970;2023-04-26T06:15:38;8.27;;;1.45;;
39822;SDS011;25499;53.958;10.970;2023-04-26T06:18:06;9.90;;;1.27;;
39822;SDS011;25499;53.958;10.970;2023-04-26T06:20:33;5.97;;;1.40;;
39822;SDS011;25499;53.958;10.970;2023-04-26T06:23:00;10.25;;;1.73;;
39822;SDS011;25499;53.958;10.970;2023-04-26T06:25:28;10.77;;;1.52;;
39822;SDS011;25499;53.958;10.970;2023-04-26T06:27:54;7.28;;;2.30;;
39822;SDS011;25499;53.958;10.970;2023-04-26T06:30:24;9.27;;;1.65;;
39822;SDS011;25499;53.958;10.970;2023-04-26T06:32:50;8.20;;;1.40;;
39822;SDS011;25499;53.958;10.970;2023-04-26T06:35:18;7.55;;;1.50;;
39822;SDS011;25499;53.958;10.970;2023-04-26T06:37:45;10.32;;;1.70;;
39822;SDS011;25499;53.958;10.970;2023-04-26T06:40:12;6.40;;;1.20;;
39822;SDS011;25499;53.958;10.970;2023-04-26T06:42:40;9.00;;;1.88;;
39822;SDS011;25499;53.958;10.970;2023-04-26T06:45:07;9.80;;;1.60;;
39822;SDS011;25499;53.958;10.970;2023-04-26T06:47:36;9.90;;;1.58;;
39822;SDS011;25499;53.958;10.970;2023-04-26T06:50:04;9.65;;;1.70;;
39822;SDS011;25499;53.958;10.970;2023-04-26T06:52:31;5.97;;;1.80;;
39822;SDS011;25499;53.958;10.970;2023-04-26T06:54:59;12.50;;;1.95;;
39822;SDS011;25499;53.958;10.970;2023-04-26T06:57:26;7.38;;;1.85;;
39822;SDS011;25499;53.958;10.970;2023-04-26T06:59:53;6.93;;;1.83;;
39822;SDS011;25499;53.958;10.970;2023-04-26T07:02:21;10.40;;;1.85;;
39822;SDS011;25499;53.958;10.970;2023-04-26T07:04:50;8.32;;;1.98;;
39822;SDS011;25499;53.958;10.970;2023-04-26T07:07:16;7.88;;;1.98;;
39822;SDS011;25499;53.958;10.970;2023-04-26T07:09:43;9.00;;;2.03;;
39822;SDS011;25499;53.958;10.970;2023-04-26T07:12:10;8.18;;;1.73;;
39822;SDS011;25499;53.958;10.970;2023-04-26T07:14:37;9.48;;;1.65;;
39822;SDS011;25499;53.958;10.970;2023-04-26T07:17:04;9.48;;;1.92;;
39822;SDS011;25499;53.958;10.970;2023-04-26T07:19:31;10.80;;;1.98;;
39822;SDS011;25499;53.958;10.970;2023-04-26T07:21:59;7.82;;;2.13;;
39822;SDS011;25499;53.958;10.970;2023-04-26T07:24:26;8.93;;;2.08;;
39822;SDS011;25499;53.958;10.970;2023-04-26T07:26:53;11.25;;;2.08;;
39822;SDS011;25499;53.958;10.970;2023-04-26T07:29:20;6.47;;;2.00;;
39822;SDS011;25499;53.958;10.970;2023-04-26T07:36:59;5.45;;;1.83;;
39822;SDS011;25499;53.958;10.970;2023-04-26T07:39:26;7.40;;;2.05;;
39822;SDS011;25499;53.958;10.970;2023-04-26T07:41:53;7.88;;;2.17;;
39822;SDS011;25499;53.958;10.970;2023-04-26T07:44:21;11.35;;;2.20;;
39822;SDS011;25499;53.958;10.970;2023-04-26T07:46:47;7.20;;;1.75;;
39822;SDS011;25499;53.958;10.970;2023-04-26T07:49:17;8.38;;;2.25;;
39822;SDS011;25499;53.958;10.970;2023-04-26T07:51:44;8.63;;;1.80;;
39822;SDS011;25499;53.958;10.970;2023-04-26T07:54:13;8.20;;;2.33;;
39822;SDS011;25499;53.958;10.970;2023-04-26T07:56:39;7.40;;;2.00;;
39822;SDS011;25499;53.958;10.970;2023-04-26T07:59:06;9.18;;;2.00;;
39822;SDS011;25499;53.958;10.970;2023-04-26T08:01:33;7.75;;;1.67;;
39822;SDS011;25499;53.958;10.970;2023-04-26T08:04:00;6.95;;;2.00;;
39822;SDS011;25499;53.958;10.970;2023-04-26T08:06:26;4.75;;;1.50;;
39822;SDS011;25499;53.958;10.970;2023-04-26T08:08:54;6.00;;;1.60;;
39822;SDS011;25499;53.958;10.970;2023-04-26T08:11:22;10.80;;;2.28;;
39822;SDS011;25499;53.958;10.970;2023-04-26T08:13:49;6.22;;;1.80;;
39822;SDS011;25499;53.958;10.970;2023-04-26T08:16:16;5.57;;;1.40;;
39822;SDS011;25499;53.958;10.970;2023-04-26T08:18:43;5.25;;;1.73;;
39822;SDS011;25499;53.958;10.970;2023-04-26T08:21:10;9.88;;;2.08;;
39822;SDS011;25499;53.958;10.970;2023-04-26T08:23:36;8.85;;;1.80;;
39822;SDS011;25499;53.958;10.970;2023-04-26T08:26:04;9.55;;;2.20;;
39822;SDS011;25499;53.958;10.970;2023-04-26T08:28:32;8.13;;;1.83;;
39822;SDS011;25499;53.958;10.970;2023-04-26T08:31:00;5.43;;;1.83;;
39822;SDS011;25499;53.958;10.970;2023-04-26T08:33:26;3.55;;;1.88;;
39822;SDS011;25499;53.958;10.970;2023-04-26T08:35:54;6.13;;;1.65;;
39822;SDS011;25499;53.958;10.970;2023-04-26T08:38:21;5.90;;;1.50;;
39822;SDS011;25499;53.958;10.970;2023-04-26T08:40:48;7.75;;;1.70;;
39822;SDS011;25499;53.958;10.970;2023-04-26T08:43:16;4.53;;;1.77;;
39822;SDS011;25499;53.958;10.970;2023-04-26T08:45:45;7.15;;;1.70;;
39822;SDS011;25499;53.958;10.970;2023-04-26T08:48:12;3.53;;;1.50;;
39822;SDS011;25499;53.958;10.970;2023-04-26T08:50:42;6.38;;;1.88;;
39822;SDS011;25499;53.958;10.970;2023-04-26T08:53:10;6.63;;;2.05;;
39822;SDS011;25499;53.958;10.970;2023-04-26T08:55:41;5.78;;;2.00;;
39822;SDS011;25499;53.958;10.970;2023-04-26T08:58:12;5.32;;;1.75;;
39822;SDS011;25499;53.958;10.970;2023-04-26T09:00:41;6.63;;;1.60;;
39822;SDS011;25499;53.958;10.970;2023-04-26T09:03:10;6.05;;;1.73;;
39822;SDS011;25499;53.958;10.970;2023-04-26T09:05:37;3.42;;;1.48;;
39822;SDS011;25499;53.958;10.970;2023-04-26T09:08:08;4.75;;;1.67;;
39822;SDS011;25499;53.958;10.970;2023-04-26T09:10:40;4.93;;;1.50;;
39822;SDS011;25499;53.958;10.970;2023-04-26T09:13:07;5.95;;;2.08;;
39822;SDS011;25499;53.958;10.970;2023-04-26T09:15:35;4.63;;;1.45;;
39822;SDS011;25499;53.958;10.970;2023-04-26T09:20:46;3.10;;;1.15;;
39822;SDS011;25499;53.958;10.970;2023-04-26T09:23:29;4.45;;;1.40;;
39822;SDS011;25499;53.958;10.970;2023-04-26T09:28:42;4.93;;;1.70;;
39822;SDS011;25499;53.958;10.970;2023-04-26T09:31:10;5.72;;;1.42;;
39822;SDS011;25499;53.958;10.970;2023-04-26T09:33:41;4.45;;;1.50;;
39822;SDS011;25499;53.958;10.970;2023-04-26T09:36:23;5.57;;;1.70;;
39822;SDS011;25499;53.958;10.970;2023-04-26T09:38:50;7.90;;;1.80;;
39822;SDS011;25499;53.958;10.970;2023-04-26T09:41:17;6.13;;;1.50;;
39822;SDS011;25499;53.958;10.970;2023-04-26T09:43:44;6.63;;;1.40;;
39822;SDS011;25499;53.958;10.970;2023-04-26T09:46:19;4.22;;;1.40;;
39822;SDS011;25499;53.958;10.970;2023-04-26T09:48:58;4.95;;;1.35;;
39822;SDS011;25499;53.958;10.970;2023-04-26T09:51:26;4.72;;;1.40;;
39822;SDS011;25499;53.958;10.970;2023-04-26T09:53:54;6.32;;;1.40;;
39822;SDS011;25499;53.958;10.970;2023-04-26T09:56:20;7.65;;;1.35;;
39822;SDS011;25499;53.958;10.970;2023-04-26T09:58:54;5.50;;;1.10;;
39822;SDS011;25499;53.958;10.970;2023-04-26T10:01:23;5.03;;;1.20;;
39822;SDS011;25499;53.958;10.970;2023-04-26T10:03:55;3.70;;;1.20;;
39822;SDS011;25499;53.958;10.970;2023-04-26T10:06:22;4.65;;;1.25;;
39822;SDS011;25499;53.958;10.970;2023-04-26T10:08:49;3.05;;;0.98;;
39822;SDS011;25499;53.958;10.970;2023-04-26T10:11:16;4.22;;;1.15;;
39822;SDS011;25499;53.958;10.970;2023-04-26T10:13:43;5.10;;;1.20;;
39822;SDS011;25499;53.958;10.970;2023-04-26T10:16:10;3.72;;;1.00;;
39822;SDS011;25499;53.958;10.970;2023-04-26T10:18:37;2.83;;;1.02;;
39822;SDS011;25499;53.958;10.970;2023-04-26T10:21:06;5.45;;;1.38;;
39822;SDS011;25499;53.958;10.970;2023-04-26T10:23:36;3.90;;;1.40;;
39822;SDS011;25499;53.958;10.970;2023-04-26T10:26:04;5.28;;;1.48;;
39822;SDS011;25499;53.958;10.970;2023-04-26T10:31:21;3.25;;;1.30;;
39822;SDS011;25499;53.958;10.970;2023-04-26T10:42:16;6.38;;;1.42;;
39822;SDS011;25499;53.958;10.970;2023-04-26T10:44:47;3.28;;;1.17;;
39822;SDS011;25499;53.958;10.970;2023-04-26T10:47:21;3.78;;;1.20;;
39822;SDS011;25499;53.958;10.970;2023-04-26T10:50:02;4.47;;;1.30;;
39822;SDS011;25499;53.958;10.970;2023-04-26T10:52:32;3.83;;;1.20;;
39822;SDS011;25499;53.958;10.970;2023-04-26T10:55:00;4.20;;;1.38;;
39822;SDS011;25499;53.958;10.970;2023-04-26T10:57:45;7.35;;;1.83;;
39822;SDS011;25499;53.958;10.970;2023-04-26T11:00:26;7.80;;;1.90;;
39822;SDS011;25499;53.958;10.970;2023-04-26T11:02:58;9.18;;;1.80;;
39822;SDS011;25499;53.958;10.970;2023-04-26T11:05:32;4.20;;;1.48;;
39822;SDS011;25499;53.958;10.970;2023-04-26T11:08:16;4.05;;;1.60;;
39822;SDS011;25499;53.958;10.970;2023-04-26T11:10:45;7.10;;;1.25;;
39822;SDS011;25499;53.958;10.970;2023-04-26T11:13:17;4.40;;;1.10;;
39822;SDS011;25499;53.958;10.970;2023-04-26T11:15:45;3.70;;;1.00;;
39822;SDS011;25499;53.958;10.970;2023-04-26T11:18:13;3.72;;;1.08;;
39822;SDS011;25499;53.958;10.970;2023-04-26T11:20:43;5.40;;;1.20;;
39822;SDS011;25499;53.958;10.970;2023-04-26T11:23:10;3.50;;;1.10;;
39822;SDS011;25499;53.958;10.970;2023-04-26T11:25:39;3.00;;;0.90;;
39822;SDS011;25499;53.958;10.970;2023-04-26T11:28:06;3.92;;;1.10;;
39822;SDS011;25499;53.958;10.970;2023-04-26T11:30:32;2.28;;;0.82;;
39822;SDS011;25499;53.958;10.970;2023-04-26T11:32:59;3.72;;;0.85;;
39822;SDS011;25499;53.958;10.970;2023-04-26T11:35:28;3.80;;;0.90;;
39822;SDS011;25499;53.958;10.970;2023-04-26T11:37:56;2.83;;;0.80;;
39822;SDS011;25499;53.958;10.970;2023-04-26T11:40:28;8.43;;;1.00;;
39822;SDS011;25499;53.958;10.970;2023-04-26T11:45:26;2.58;;;0.93;;
39822;SDS011;25499;53.958;10.970;2023-04-26T11:47:53;3.42;;;0.82;;
39822;SDS011;25499;53.958;10.970;2023-04-26T11:50:22;2.95;;;0.70;;
39822;SDS011;25499;53.958;10.970;2023-04-26T11:52:52;5.40;;;0.60;;
39822;SDS011;25499;53.958;10.970;2023-04-26T11:55:22;2.35;;;0.57;;
39822;SDS011;25499;53.958;10.970;2023-04-26T11:57:49;2.47;;;0.45;;
39822;SDS011;25499;53.958;10.970;2023-04-26T12:00:18;8.38;;;1.00;;
39822;SDS011;25499;53.958;10.970;2023-04-26T12:02:47;5.70;;;0.73;;
39822;SDS011;25499;53.958;10.970;2023-04-26T12:05:21;3.22;;;0.90;;
39822;SDS011;25499;53.958;10.970;2023-04-26T12:07:50;2.38;;;1.10;;
39822;SDS011;25499;53.958;10.970;2023-04-26T12:10:18;4.82;;;0.93;;
39822;SDS011;25499;53.958;10.970;2023-04-26T12:12:46;3.80;;;1.38;;
39822;SDS011;25499;53.958;10.970;2023-04-26T12:15:15;2.38;;;1.08;;
39822;SDS011;25499;53.958;10.970;2023-04-26T12:17:52;3.58;;;1.30;;
39822;SDS011;25499;53.958;10.970;2023-04-26T12:20:27;3.00;;;1.15;;
39822;SDS011;25499;53.958;10.970;2023-04-26T12:23:02;4.10;;;0.93;;
39822;SDS011;25499;53.958;10.970;2023-04-26T12:25:30;4.93;;;1.73;;
39822;SDS011;25499;53.958;10.970;2023-04-26T12:27:58;2.97;;;0.93;;
39822;SDS011;25499;53.958;10.970;2023-04-26T12:30:26;3.55;;;1.13;;
39822;SDS011;25499;53.958;10.970;2023-04-26T12:32:55;3.60;;;0.80;;
39822;SDS011;25499;53.958;10.970;2023-04-26T12:35:22;3.30;;;0.90;;
39822;SDS011;25499;53.958;10.970;2023-04-26T12:37:49;3.13;;;0.60;;
39822;SDS011;25499;53.958;10.970;2023-04-26T12:40:18;1.95;;;0.65;;
39822;SDS011;25499;53.958;10.970;2023-04-26T12:42:46;3.03;;;0.60;;
39822;SDS011;25499;53.958;10.970;2023-04-26T12:45:14;2.95;;;0.65;;
39822;SDS011;25499;53.958;10.970;2023-04-26T12:47:42;3.88;;;0.85;;
39822;SDS011;25499;53.958;10.970;2023-04-26T12:50:11;4.75;;;1.00;;
39822;SDS011;25499;53.958;10.970;2023-04-26T12:52:39;1.83;;;0.90;;
39822;SDS011;25499;53.958;10.970;2023-04-26T12:55:08;2.03;;;0.80;;
39822;SDS011;25499;53.958;10.970;2023-04-26T12:57:36;4.10;;;0.90;;
39822;SDS011;25499;53.958;10.970;2023-04-26T13:00:04;2.22;;;0.80;;
39822;SDS011;25499;53.958;10.970;2023-04-26T13:02:33;3.92;;;0.73;;
39822;SDS011;25499;53.958;10.970;2023-04-26T13:05:00;4.38;;;0.70;;
39822;SDS011;25499;53.958;10.970;2023-04-26T13:07:30;3.42;;;0.75;;
39822;SDS011;25499;53.958;10.970;2023-04-26T13:09:57;4.07;;;1.17;;
39822;SDS011;25499;53.958;10.970;2023-04-26T13:12:24;3.13;;;0.70;;
39822;SDS011;25499;53.958;10.970;2023-04-26T13:14:52;3.70;;;0.88;;
39822;SDS011;25499;53.958;10.970;2023-04-26T13:17:18;3.45;;;0.90;;
39822;SDS011;25499;53.958;10.970;2023-04-26T13:19:46;1.58;;;0.55;;
39822;SDS011;25499;53.958;10.970;2023-04-26T13:22:13;7.25;;;0.60;;
39822;SDS011;25499;53.958;10.970;2023-04-26T13:24:42;3.90;;;0.60;;
39822;SDS011;25499;53.958;10.970;2023-04-26T13:27:09;3.72;;;0.80;;
39822;SDS011;25499;53.958;10.970;2023-04-26T13:29:36;2.38;;;0.80;;
39822;SDS011;25499;53.958;10.970;2023-04-26T13:32:02;5.72;;;0.80;;
39822;SDS011;25499;53.958;10.970;2023-04-26T13:34:29;4.47;;;0.90;;
39822;SDS011;25499;53.958;10.970;2023-04-26T13:36:56;5.38;;;1.02;;
39822;SDS011;25499;53.958;10.970;2023-04-26T13:39:24;5.07;;;0.95;;
39822;SDS011;25499;53.958;10.970;2023-04-26T13:41:54;4.72;;;0.90;;
39822;SDS011;25499;53.958;10.970;2023-04-26T13:44:23;7.97;;;0.90;;
39822;SDS011;25499;53.958;10.970;2023-04-26T13:46:52;4.30;;;0.80;;
39822;SDS011;25499;53.958;10.970;2023-04-26T13:49:20;3.10;;;0.90;;
39822;SDS011;25499;53.958;10.970;2023-04-26T13:51:47;6.32;;;1.08;;
39822;SDS011;25499;53.958;10.970;2023-04-26T13:54:14;5.07;;;0.98;;
39822;SDS011;25499;53.958;10.970;2023-04-26T13:56:41;3.72;;;0.80;;
39822;SDS011;25499;53.958;10.970;2023-04-26T13:59:09;5.70;;;0.52;;
39822;SDS011;25499;53.958;10.970;2023-04-26T14:01:36;1.70;;;0.65;;
39822;SDS011;25499;53.958;10.970;2023-04-26T14:04:04;2.55;;;0.70;;
39822;SDS011;25499;53.958;10.970;2023-04-26T14:06:32;4.55;;;0.73;;
39822;SDS011;25499;53.958;10.970;2023-04-26T14:09:00;5.55;;;1.05;;
39822;SDS011;25499;53.958;10.970;2023-04-26T14:11:29;3.88;;;0.70;;
39822;SDS011;25499;53.958;10.970;2023-04-26T14:13:56;4.95;;;0.90;;
39822;SDS011;25499;53.958;10.970;2023-04-26T14:16:25;4.25;;;0.70;;
39822;SDS011;25499;53.958;10.970;2023-04-26T14:18:52;2.75;;;0.70;;
39822;SDS011;25499;53.958;10.970;2023-04-26T14:21:18;3.53;;;0.65;;
39822;SDS011;25499;53.958;10.970;2023-04-26T14:23:45;5.03;;;0.70;;
39822;SDS011;25499;53.958;10.970;2023-04-26T14:26:12;6.75;;;0.88;;
39822;SDS011;25499;53.958;10.970;2023-04-26T14:28:39;4.75;;;0.80;;
39822;SDS011;25499;53.958;10.970;2023-04-26T14:31:06;2.70;;;0.60;;
39822;SDS011;25499;53.958;10.970;2023-04-26T14:33:34;4.43;;;0.95;;
39822;SDS011;25499;53.958;10.970;2023-04-26T14:36:01;2.13;;;0.50;;
39822;SDS011;25499;53.958;10.970;2023-04-26T14:38:28;2.90;;;0.77;;
39822;SDS011;25499;53.958;10.970;2023-04-26T14:40:54;4.43;;;0.80;;
39822;SDS011;25499;53.958;10.970;2023-04-26T14:43:21;2.95;;;0.70;;
39822;SDS011;25499;53.958;10.970;2023-04-26T14:45:48;3.13;;;0.77;;
39822;SDS011;25499;53.958;10.970;2023-04-26T14:48:16;3.20;;;1.02;;
39822;SDS011;25499;53.958;10.970;2023-04-26T14:50:44;3.25;;;0.90;;
39822;SDS011;25499;53.958;10.970;2023-04-26T14:53:11;4.88;;;0.73;;
39822;SDS011;25499;53.958;10.970;2023-04-26T14:55:38;3.22;;;0.70;;
39822;SDS011;25499;53.958;10.970;2023-04-26T14:58:05;2.83;;;0.60;;
39822;SDS011;25499;53.958;10.970;2023-04-26T15:00:32;4.07;;;0.85;;
39822;SDS011;25499;53.958;10.970;2023-04-26T15:02:58;5.07;;;0.80;;
39822;SDS011;25499;53.958;10.970;2023-04-26T15:05:26;3.78;;;0.70;;
39822;SDS011;25499;53.958;10.970;2023-04-26T15:07:54;1.70;;;0.75;;
39822;SDS011;25499;53.958;10.970;2023-04-26T15:10:21;2.90;;;0.50;;
39822;SDS011;25499;53.958;10.970;2023-04-26T15:12:48;5.60;;;0.77;;
39822;SDS011;25499;53.958;10.970;2023-04-26T15:15:15;4.13;;;0.82;;
39822;SDS011;25499;53.958;10.970;2023-04-26T15:17:42;5.43;;;0.80;;
39822;SDS011;25499;53.958;10.970;2023-04-26T15:20:09;4.25;;;0.70;;
39822;SDS011;25499;53.958;10.970;2023-04-26T15:22:36;5.13;;;0.90;;
39822;SDS011;25499;53.958;10.970;2023-04-26T15:25:05;5.15;;;1.02;;
39822;SDS011;25499;53.958;10.970;2023-04-26T15:27:33;7.65;;;1.05;;
39822;SDS011;25499;53.958;10.970;2023-04-26T15:30:00;4.05;;;0.90;;
39822;SDS011;25499;53.958;10.970;2023-04-26T15:32:28;6.22;;;0.68;;
39822;SDS011;25499;53.958;10.970;2023-04-26T15:34:55;7.20;;;1.05;;
39822;SDS011;25499;53.958;10.970;2023-04-26T15:37:22;3.92;;;0.80;;
39822;SDS011;25499;53.958;10.970;2023-04-26T15:39:49;3.35;;;0.70;;
39822;SDS011;25499;53.958;10.970;2023-04-26T15:42:17;3.00;;;1.02;;
39822;SDS011;25499;53.958;10.970;2023-04-26T15:44:44;4.90;;;0.90;;
39822;SDS011;25499;53.958;10.970;2023-04-26T15:47:13;2.30;;;0.70;;
39822;SDS011;25499;53.958;10.970;2023-04-26T15:49:39;2.47;;;0.98;;
39822;SDS011;25499;53.958;10.970;2023-04-26T15:52:06;3.50;;;0.70;;
39822;SDS011;25499;53.958;10.970;2023-04-26T15:54:33;4.45;;;0.80;;
39822;SDS011;25499;53.958;10.970;2023-04-26T15:57:00;5.05;;;0.80;;
39822;SDS011;25499;53.958;10.970;2023-04-26T15:59:29;3.25;;;0.80;;
39822;SDS011;25499;53.958;10.970;2023-04-26T16:01:57;5.38;;;0.80;;
39822;SDS011;25499;53.958;10.970;2023-04-26T16:04:24;6.50;;;1.58;;
39822;SDS011;25499;53.958;10.970;2023-04-26T16:06:50;5.03;;;0.80;;
39822;SDS011;25499;53.958;10.970;2023-04-26T16:09:17;3.83;;;0.68;;
39822;SDS011;25499;53.958;10.970;2023-04-26T16:11:44;6.70;;;0.80;;
39822;SDS011;25499;53.958;10.970;2023-04-26T16:14:11;2.95;;;0.85;;
39822;SDS011;25499;53.958;10.970;2023-04-26T16:16:39;3.47;;;0.70;;
39822;SDS011;25499;53.958;10.970;2023-04-26T16:19:07;8.38;;;1.00;;
39822;SDS011;25499;53.958;10.970;2023-04-26T16:21:34;2.80;;;1.00;;
39822;SDS011;25499;53.958;10.970;2023-04-26T16:24:03;2.25;;;0.70;;
39822;SDS011;25499;53.958;10.970;2023-04-26T16:26:32;3.70;;;1.00;;
39822;SDS011;25499;53.958;10.970;2023-04-26T16:28:59;4.65;;;0.85;;
39822;SDS011;25499;53.958;10.970;2023-04-26T16:31:28;4.18;;;0.75;;
39822;SDS011;25499;53.958;10.970;2023-04-26T16:33:58;3.53;;;0.55;;
39822;SDS011;25499;53.958;10.970;2023-04-26T16:36:25;4.32;;;0.70;;
39822;SDS011;25499;53.958;10.970;2023-04-26T16:38:52;1.58;;;0.80;;
39822;SDS011;25499;53.958;10.970;2023-04-26T16:41:19;3.05;;;0.80;;
39822;SDS011;25499;53.958;10.970;2023-04-26T16:43:47;5.60;;;0.90;;
39822;SDS011;25499;53.958;10.970;2023-04-26T16:46:16;4.40;;;1.02;;
39822;SDS011;25499;53.958;10.970;2023-04-26T16:48:43;2.85;;;0.90;;
39822;SDS011;25499;53.958;10.970;2023-04-26T16:51:11;4.32;;;0.90;;
39822;SDS011;25499;53.958;10.970;2023-04-26T16:53:38;4.25;;;1.10;;
39822;SDS011;25499;53.958;10.970;2023-04-26T16:56:08;4.28;;;1.13;;
39822;SDS011;25499;53.958;10.970;2023-04-26T17:01:02;3.13;;;0.90;;
39822;SDS011;25499;53.958;10.970;2023-04-26T17:03:29;9.52;;;1.25;;
39822;SDS011;25499;53.958;10.970;2023-04-26T17:05:56;6.93;;;1.00;;
39822;SDS011;25499;53.958;10.970;2023-04-26T17:08:24;3.67;;;0.90;;
39822;SDS011;25499;53.958;10.970;2023-04-26T17:10:51;4.40;;;1.00;;
39822;SDS011;25499;53.958;10.970;2023-04-26T17:13:18;7.80;;;1.20;;
39822;SDS011;25499;53.958;10.970;2023-04-26T17:15:45;9.10;;;1.15;;
39822;SDS011;25499;53.958;10.970;2023-04-26T17:18:11;4.75;;;0.98;;
39822;SDS011;25499;53.958;10.970;2023-04-26T17:20:38;6.45;;;1.00;;
39822;SDS011;25499;53.958;10.970;2023-04-26T17:23:06;8.88;;;0.93;;
39822;SDS011;25499;53.958;10.970;2023-04-26T17:25:35;3.67;;;1.17;;
39822;SDS011;25499;53.958;10.970;2023-04-26T17:28:02;5.78;;;1.30;;
39822;SDS011;25499;53.958;10.970;2023-04-26T17:30:29;2.55;;;0.90;;
39822;SDS011;25499;53.958;10.970;2023-04-26T17:35:24;5.90;;;1.15;;
39822;SDS011;25499;53.958;10.970;2023-04-26T17:40:21;6.32;;;1.63;;
39822;SDS011;25499;53.958;10.970;2023-04-26T17:42:49;2.97;;;0.88;;
39822;SDS011;25499;53.958;10.970;2023-04-26T17:45:15;5.75;;;1.10;;
39822;SDS011;25499;53.958;10.970;2023-04-26T17:47:42;2.95;;;1.15;;
39822;SDS011;25499;53.958;10.970;2023-04-26T17:50:10;4.65;;;1.10;;
39822;SDS011;25499;53.958;10.970;2023-04-26T17:52:37;4.75;;;1.10;;
39822;SDS011;25499;53.958;10.970;2023-04-26T17:55:04;3.97;;;1.20;;
39822;SDS011;25499;53.958;10.970;2023-04-26T17:57:33;4.40;;;1.08;;
39822;SDS011;25499;53.958;10.970;2023-04-26T18:00:02;3.22;;;1.13;;
39822;SDS011;25499;53.958;10.970;2023-04-26T18:02:29;5.68;;;1.20;;
39822;SDS011;25499;53.958;10.970;2023-04-26T18:04:56;6.60;;;1.50;;
39822;SDS011;25499;53.958;10.970;2023-04-26T18:07:23;5.07;;;1.38;;
39822;SDS011;25499;53.958;10.970;2023-04-26T18:09:50;4.00;;;1.40;;
39822;SDS011;25499;53.958;10.970;2023-04-26T18:12:17;13.63;;;1.40;;
39822;SDS011;25499;53.958;10.970;2023-04-26T18:14:43;5.57;;;1.50;;
39822;SDS011;25499;53.958;10.970;2023-04-26T18:17:11;7.38;;;1.77;;
39822;SDS011;25499;53.958;10.970;2023-04-26T18:19:39;4.55;;;1.20;;
39822;SDS011;25499;53.958;10.970;2023-04-26T18:22:06;6.32;;;1.50;;
39822;SDS011;25499;53.958;10.970;2023-04-26T18:24:33;6.10;;;1.48;;
39822;SDS011;25499;53.958;10.970;2023-04-26T18:27:00;5.22;;;1.30;;
39822;SDS011;25499;53.958;10.970;2023-04-26T18:29:27;7.00;;;1.40;;
39822;SDS011;25499;53.958;10.970;2023-04-26T18:31:55;4.75;;;1.27;;
39822;SDS011;25499;53.958;10.970;2023-04-26T18:34:23;3.40;;;1.40;;
39822;SDS011;25499;53.958;10.970;2023-04-26T18:36:49;5.15;;;1.60;;
39822;SDS011;25499;53.958;10.970;2023-04-26T18:39:16;8.32;;;1.30;;
39822;SDS011;25499;53.958;10.970;2023-04-26T18:41:43;4.05;;;1.27;;
39822;SDS011;25499;53.958;10.970;2023-04-26T18:44:10;5.35;;;1.90;;
39822;SDS011;25499;53.958;10.970;2023-04-26T18:46:37;5.05;;;1.25;;
39822;SDS011;25499;53.958;10.970;2023-04-26T18:49:04;7.65;;;1.30;;
39822;SDS011;25499;53.958;10.970;2023-04-26T18:51:32;6.78;;;1.50;;
39822;SDS011;25499;53.958;10.970;2023-04-26T18:53:59;4.57;;;1.30;;
39822;SDS011;25499;53.958;10.970;2023-04-26T18:56:26;7.50;;;1.30;;
39822;SDS011;25499;53.958;10.970;2023-04-26T18:58:53;2.90;;;1.25;;
39822;SDS011;25499;53.958;10.970;2023-04-26T19:01:20;5.50;;;1.27;;
39822;SDS011;25499;53.958;10.970;2023-04-26T19:03:48;4.07;;;1.40;;
39822;SDS011;25499;53.958;10.970;2023-04-26T19:06:15;5.63;;;1.30;;
39822;SDS011;25499;53.958;10.970;2023-04-26T19:08:43;5.55;;;1.50;;
39822;SDS011;25499;53.958;10.970;2023-04-26T19:11:10;7.10;;;1.48;;
39822;SDS011;25499;53.958;10.970;2023-04-26T19:13:37;5.18;;;1.30;;
39822;SDS011;25499;53.958;10.970;2023-04-26T19:16:04;5.10;;;1.48;;
39822;SDS011;25499;53.958;10.970;2023-04-26T19:18:31;6.47;;;1.35;;
39822;SDS011;25499;53.958;10.970;2023-04-26T19:21:01;4.55;;;1.20;;
39822;SDS011;25499;53.958;10.970;2023-04-26T19:23:28;6.18;;;1.25;;
39822;SDS011;25499;53.958;10.970;2023-04-26T19:26:01;6.47;;;1.77;;
39822;SDS011;25499;53.958;10.970;2023-04-26T19:28:29;4.90;;;1.42;;
39822;SDS011;25499;53.958;10.970;2023-04-26T19:30:56;4.18;;;1.50;;
39822;SDS011;25499;53.958;10.970;2023-04-26T19:33:23;6.75;;;1.63;;
39822;SDS011;25499;53.958;10.970;2023-04-26T19:35:49;6.38;;;1.40;;
39822;SDS011;25499;53.958;10.970;2023-04-26T19:38:16;4.95;;;1.40;;
39822;SDS011;25499;53.958;10.970;2023-04-26T19:40:43;4.28;;;1.50;;
39822;SDS011;25499;53.958;10.970;2023-04-26T19:43:12;4.20;;;1.40;;
39822;SDS011;25499;53.958;10.970;2023-04-26T19:45:38;6.00;;;1.45;;
39822;SDS011;25499;53.958;10.970;2023-04-26T19:48:05;5.45;;;1.30;;
39822;SDS011;25499;53.958;10.970;2023-04-26T19:50:36;5.57;;;1.60;;
39822;SDS011;25499;53.958;10.970;2023-04-26T19:53:03;5.85;;;1.50;;
